Time,TemperatureF,DewpointF,PressureIn,WindDirection,WindDirectionDegrees,WindSpeedMPH,WindSpeedGustMPH,Humidity,HourlyPrecipIn,Conditions,Clouds,dailyrainin,SoftwareType,DateUTC
2013-08-03 00:00:00,70.2,69.0,30.02,SSE,156,0.0,0.0,96,0.00,,,0.00,Wunderground v.1.15,2013-08-03 04:00:00,
2013-08-03 00:05:00,70.2,68.7,30.02,SSE,156,0.0,0.0,95,0.00,,,0.00,Wunderground v.1.15,2013-08-03 04:05:00,
2013-08-03 00:11:00,70.1,68.6,30.02,SSE,156,0.0,0.0,95,0.00,,,0.00,Wunderground v.1.15,2013-08-03 04:11:00,
2013-08-03 00:15:00,70.1,68.6,30.01,SSE,156,0.0,0.0,95,0.00,,,0.00,Wunderground v.1.15,2013-08-03 04:15:00,
2013-08-03 00:20:00,70.1,68.9,30.01,SSE,156,0.0,0.0,96,0.00,,,0.00,Wunderground v.1.15,2013-08-03 04:20:00,
2013-08-03 00:25:00,70.1,68.9,30.01,SSE,156,0.0,0.0,96,0.00,,,0.00,Wunderground v.1.15,2013-08-03 04:25:00,
2013-08-03 00:30:00,70.1,68.9,30.01,SSE,156,0.0,0.0,96,0.00,,,0.00,Wunderground v.1.15,2013-08-03 04:30:00,
2013-08-03 00:35:00,70.1,68.9,30.01,SSE,156,0.0,0.0,96,0.00,,,0.00,Wunderground v.1.15,2013-08-03 04:35:00,
2013-08-03 00:40:00,70.1,68.9,30.01,SSE,156,0.0,0.0,96,0.00,,,0.00,Wunderground v.1.15,2013-08-03 04:40:00,
2013-08-03 00:45:00,70.1,68.9,30.01,SSE,156,0.0,0.0,96,0.00,,,0.00,Wunderground v.1.15,2013-08-03 04:45:00,
2013-08-03 00:55:00,70.1,68.9,30.02,SSE,156,0.0,0.0,96,0.00,,,0.00,Wunderground v.1.15,2013-08-03 04:55:00,
2013-08-03 01:00:00,70.1,68.9,30.02,SSE,156,0.0,0.0,96,0.00,,,0.00,Wunderground v.1.15,2013-08-03 05:00:00,
2013-08-03 01:05:00,70.1,68.9,30.02,SSE,156,0.0,0.0,96,0.00,,,0.00,Wunderground v.1.15,2013-08-03 05:05:00,
2013-08-03 01:15:00,70.2,69.0,30.02,SSE,156,0.0,0.0,96,0.00,,,0.00,Wunderground v.1.15,2013-08-03 05:15:00,
2013-08-03 01:25:00,70.2,69.0,30.02,SSE,156,0.0,0.0,96,0.00,,,0.00,Wunderground v.1.15,2013-08-03 05:25:00,
2013-08-03 01:31:00,70.2,69.0,30.02,SSE,156,0.0,0.0,96,0.00,,,0.00,Wunderground v.1.15,2013-08-03 05:31:00,
2013-08-03 01:35:00,70.2,69.0,30.02,SSE,156,0.0,0.0,96,0.00,,,0.00,Wunderground v.1.15,2013-08-03 05:35:00,
2013-08-03 01:40:00,70.2,69.0,30.02,SSE,156,0.0,0.0,96,0.00,,,0.00,Wunderground v.1.15,2013-08-03 05:40:00,
2013-08-03 01:50:00,70.1,68.9,30.01,SSE,156,0.0,0.0,96,0.00,,,0.00,Wunderground v.1.15,2013-08-03 05:50:00,
2013-08-03 01:55:00,70.1,68.9,30.02,SSE,156,0.0,0.0,96,0.00,,,0.00,Wunderground v.1.15,2013-08-03 05:55:00,
2013-08-03 02:00:00,70.1,68.9,30.02,SSE,156,0.0,0.0,96,0.00,,,0.00,Wunderground v.1.15,2013-08-03 06:00:00,
2013-08-03 02:05:00,70.0,68.8,30.02,SSE,156,0.0,0.0,96,0.00,,,0.00,Wunderground v.1.15,2013-08-03 06:05:00,
2013-08-03 02:10:00,69.9,68.7,30.01,SSE,156,0.0,0.0,96,0.00,,,0.00,Wunderground v.1.15,2013-08-03 06:10:00,
2013-08-03 02:15:00,69.9,68.7,30.01,SSE,156,0.0,0.0,96,0.00,,,0.00,Wunderground v.1.15,2013-08-03 06:15:00,
2013-08-03 02:20:00,69.8,68.6,30.01,SSE,156,0.0,0.0,96,0.00,,,0.00,Wunderground v.1.15,2013-08-03 06:20:00,
2013-08-03 02:25:00,69.7,68.5,30.01,SSE,156,0.0,0.0,96,0.00,,,0.00,Wunderground v.1.15,2013-08-03 06:25:00,
2013-08-03 02:30:00,69.7,68.5,30.01,SSE,156,0.0,0.0,96,0.00,,,0.00,Wunderground v.1.15,2013-08-03 06:30:00,
2013-08-03 02:35:00,69.6,68.4,30.01,SSE,156,0.0,0.0,96,0.00,,,0.00,Wunderground v.1.15,2013-08-03 06:35:00,
2013-08-03 02:40:00,69.5,68.3,30.01,SSE,156,0.0,0.0,96,0.00,,,0.00,Wunderground v.1.15,2013-08-03 06:40:00,
2013-08-03 02:45:00,69.4,68.2,30.00,SSE,156,0.0,0.0,96,0.00,,,0.00,Wunderground v.1.15,2013-08-03 06:45:00,
2013-08-03 02:50:00,69.4,68.2,30.00,SSE,156,0.0,0.0,96,0.00,,,0.00,Wunderground v.1.15,2013-08-03 06:50:00,
2013-08-03 02:55:00,69.3,68.1,30.00,SSE,156,0.0,0.0,96,0.00,,,0.00,Wunderground v.1.15,2013-08-03 06:55:00,
2013-08-03 03:05:00,69.3,68.1,30.00,SSE,156,0.0,0.0,96,0.00,,,0.00,Wunderground v.1.15,2013-08-03 07:05:00,
2013-08-03 03:10:00,69.2,68.0,30.00,SSE,156,0.0,0.0,96,0.00,,,0.00,Wunderground v.1.15,2013-08-03 07:10:00,
2013-08-03 03:15:00,69.2,68.0,30.00,SSE,156,0.0,0.0,96,0.00,,,0.00,Wunderground v.1.15,2013-08-03 07:15:00,
2013-08-03 03:20:00,69.2,68.0,29.99,SSE,156,0.0,0.0,96,0.00,,,0.00,Wunderground v.1.15,2013-08-03 07:20:00,
2013-08-03 03:24:00,69.1,67.9,29.99,SSE,156,0.0,0.0,96,0.00,,,0.00,Wunderground v.1.15,2013-08-03 07:24:00,
2013-08-03 03:31:00,69.1,67.9,29.99,SSE,156,0.0,0.0,96,0.00,,,0.00,Wunderground v.1.15,2013-08-03 07:31:00,
2013-08-03 03:35:00,69.1,67.9,29.99,SSE,156,0.0,0.0,96,0.00,,,0.00,Wunderground v.1.15,2013-08-03 07:35:00,
2013-08-03 03:40:00,69.2,68.3,29.99,SSE,156,0.0,0.0,97,0.00,,,0.00,Wunderground v.1.15,2013-08-03 07:40:00,
2013-08-03 03:45:00,69.1,68.2,29.99,SSE,156,0.0,0.0,97,0.00,,,0.00,Wunderground v.1.15,2013-08-03 07:45:00,
2013-08-03 03:50:00,69.1,68.2,29.99,SSE,156,0.0,0.0,97,0.00,,,0.00,Wunderground v.1.15,2013-08-03 07:50:00,
2013-08-03 03:55:00,69.1,68.2,29.99,SSE,156,0.0,0.0,97,0.00,,,0.00,Wunderground v.1.15,2013-08-03 07:55:00,
2013-08-03 04:00:00,69.2,68.3,29.99,SSE,156,0.0,0.0,97,0.00,,,0.00,Wunderground v.1.15,2013-08-03 08:00:00,
2013-08-03 04:05:00,69.2,68.3,29.98,SSE,156,0.0,0.0,97,0.00,,,0.00,Wunderground v.1.15,2013-08-03 08:05:00,
2013-08-03 04:10:00,69.1,68.2,29.98,SSE,156,0.0,0.0,97,0.00,,,0.00,Wunderground v.1.15,2013-08-03 08:10:00,
2013-08-03 04:25:00,69.1,68.2,29.99,SSE,156,0.0,0.0,97,0.00,,,0.00,Wunderground v.1.15,2013-08-03 08:25:00,
2013-08-03 04:30:00,69.1,68.2,29.99,SSE,156,0.0,0.0,97,0.00,,,0.00,Wunderground v.1.15,2013-08-03 08:30:00,
2013-08-03 04:35:00,69.1,68.2,29.99,SSE,156,0.0,0.0,97,0.00,,,0.00,Wunderground v.1.15,2013-08-03 08:35:00,
2013-08-03 04:45:00,69.0,68.1,29.99,SSE,156,0.0,0.0,97,0.00,,,0.00,Wunderground v.1.15,2013-08-03 08:45:00,
2013-08-03 04:55:00,69.1,68.2,29.99,SSE,156,0.0,0.0,97,0.00,,,0.00,Wunderground v.1.15,2013-08-03 08:55:00,
2013-08-03 05:00:00,69.0,68.1,29.99,SSE,156,0.0,0.0,97,0.00,,,0.00,Wunderground v.1.15,2013-08-03 09:00:00,
2013-08-03 05:05:00,69.0,68.1,29.99,SSE,156,0.0,0.0,97,0.00,,,0.00,Wunderground v.1.15,2013-08-03 09:05:00,
2013-08-03 05:10:00,68.9,67.7,29.99,SSE,156,0.0,0.0,96,0.00,,,0.00,Wunderground v.1.15,2013-08-03 09:10:00,
2013-08-03 05:15:00,68.9,67.7,29.99,SSE,156,0.0,0.0,96,0.00,,,0.00,Wunderground v.1.15,2013-08-03 09:15:00,
2013-08-03 05:20:00,68.8,67.6,29.99,SSE,156,0.0,0.0,96,0.00,,,0.00,Wunderground v.1.15,2013-08-03 09:20:00,
2013-08-03 05:30:00,68.7,67.8,29.99,SSE,156,0.0,0.0,97,0.00,,,0.00,Wunderground v.1.15,2013-08-03 09:30:00,
2013-08-03 05:40:00,68.7,67.8,30.00,SSE,156,0.0,0.0,97,0.00,,,0.00,Wunderground v.1.15,2013-08-03 09:40:00,
2013-08-03 05:45:00,68.6,67.7,30.00,SSE,156,0.0,0.0,97,0.00,,,0.00,Wunderground v.1.15,2013-08-03 09:45:00,
2013-08-03 05:50:00,68.7,67.8,30.00,SSE,156,0.0,0.0,97,0.00,,,0.00,Wunderground v.1.15,2013-08-03 09:50:00,
2013-08-03 06:00:00,68.8,67.9,30.00,SSE,156,0.0,0.0,97,0.00,,,0.00,Wunderground v.1.15,2013-08-03 10:00:00,
2013-08-03 06:05:00,68.8,67.9,30.00,SSE,156,0.0,0.0,97,0.00,,,0.00,Wunderground v.1.15,2013-08-03 10:05:00,
2013-08-03 06:10:00,68.9,68.0,30.00,SSE,156,0.0,0.0,97,0.00,,,0.00,Wunderground v.1.15,2013-08-03 10:10:00,
2013-08-03 06:15:00,68.9,68.0,30.00,SSE,156,0.0,0.0,97,0.00,,,0.00,Wunderground v.1.15,2013-08-03 10:15:00,
2013-08-03 06:20:00,69.0,68.1,30.00,SSE,156,0.0,0.0,97,0.00,,,0.00,Wunderground v.1.15,2013-08-03 10:20:00,
2013-08-03 06:30:00,69.3,68.4,30.00,SSE,156,0.0,0.0,97,0.00,,,0.00,Wunderground v.1.15,2013-08-03 10:30:00,
2013-08-03 06:35:00,69.3,68.4,30.00,SSE,156,0.0,0.0,97,0.00,,,0.00,Wunderground v.1.15,2013-08-03 10:35:00,
2013-08-03 06:40:00,69.4,68.5,30.00,SSE,156,0.0,0.0,97,0.00,,,0.00,Wunderground v.1.15,2013-08-03 10:40:00,
2013-08-03 06:45:00,69.4,68.5,30.01,SSE,156,0.0,0.0,97,0.00,,,0.00,Wunderground v.1.15,2013-08-03 10:45:00,
2013-08-03 06:50:00,69.5,68.6,30.01,SSE,156,0.0,0.0,97,0.00,,,0.00,Wunderground v.1.15,2013-08-03 10:50:00,
2013-08-03 06:55:00,69.7,68.8,30.00,SSE,156,0.0,0.0,97,0.00,,,0.00,Wunderground v.1.15,2013-08-03 10:55:00,
2013-08-03 07:00:00,69.8,68.9,30.00,SSE,156,0.0,0.0,97,0.00,,,0.00,Wunderground v.1.15,2013-08-03 11:00:00,
2013-08-03 07:05:00,69.9,69.0,30.00,SSE,156,0.0,0.0,97,0.00,,,0.00,Wunderground v.1.15,2013-08-03 11:05:00,
2013-08-03 07:10:00,70.1,69.2,30.00,SSE,156,0.0,0.0,97,0.00,,,0.00,Wunderground v.1.15,2013-08-03 11:10:00,
2013-08-03 07:15:00,70.1,69.2,30.00,SSE,156,0.0,0.0,97,0.00,,,0.00,Wunderground v.1.15,2013-08-03 11:15:00,
2013-08-03 07:24:00,70.4,69.5,30.00,SSE,156,0.0,0.0,97,0.00,,,0.00,Wunderground v.1.15,2013-08-03 11:24:00,
2013-08-03 07:35:00,70.7,70.1,30.00,SSE,156,0.0,0.0,98,0.00,,,0.00,Wunderground v.1.15,2013-08-03 11:35:00,
2013-08-03 07:45:00,71.0,70.1,30.00,SSE,156,0.0,0.0,97,0.00,,,0.00,Wunderground v.1.15,2013-08-03 11:45:00,
2013-08-03 07:50:00,71.1,70.5,30.01,SSE,156,0.0,0.0,98,0.00,,,0.00,Wunderground v.1.15,2013-08-03 11:50:00,
2013-08-03 07:55:00,71.2,70.6,30.00,SSE,156,0.0,0.0,98,0.00,,,0.00,Wunderground v.1.15,2013-08-03 11:55:00,
2013-08-03 08:00:00,71.4,70.8,30.01,SSE,156,0.0,0.0,98,0.00,,,0.00,Wunderground v.1.15,2013-08-03 12:00:00,
2013-08-03 08:10:00,71.9,71.3,30.01,SSE,156,0.0,0.0,98,0.00,,,0.00,Wunderground v.1.15,2013-08-03 12:10:00,
2013-08-03 08:15:00,72.0,71.4,30.01,SSE,156,0.0,0.0,98,0.00,,,0.00,Wunderground v.1.15,2013-08-03 12:15:00,
2013-08-03 08:20:00,72.4,71.8,30.01,SSE,156,0.0,0.0,98,0.00,,,0.00,Wunderground v.1.15,2013-08-03 12:20:00,
2013-08-03 08:25:00,72.9,72.3,30.01,SSE,156,0.0,0.0,98,0.00,,,0.00,Wunderground v.1.15,2013-08-03 12:25:00,
2013-08-03 08:30:00,73.2,72.6,30.01,South,181,0.0,0.0,98,0.00,,,0.00,Wunderground v.1.15,2013-08-03 12:30:00,
2013-08-03 08:40:00,73.8,73.2,30.01,South,181,0.0,0.0,98,0.00,,,0.00,Wunderground v.1.15,2013-08-03 12:40:00,
2013-08-03 08:45:00,74.0,73.4,30.01,South,181,0.0,0.0,98,0.00,,,0.00,Wunderground v.1.15,2013-08-03 12:45:00,
2013-08-03 08:50:00,74.2,73.6,30.00,South,181,0.0,0.0,98,0.00,,,0.00,Wunderground v.1.15,2013-08-03 12:50:00,
2013-08-03 08:55:00,74.2,73.6,30.00,South,181,0.0,0.0,98,0.00,,,0.00,Wunderground v.1.15,2013-08-03 12:55:00,
2013-08-03 09:00:00,74.5,73.9,30.00,South,181,0.0,0.0,98,0.00,,,0.00,Wunderground v.1.15,2013-08-03 13:00:00,
2013-08-03 09:05:00,74.7,74.1,30.00,South,181,0.0,0.0,98,0.00,,,0.00,Wunderground v.1.15,2013-08-03 13:05:00,
2013-08-03 09:10:00,75.0,74.4,30.00,South,181,0.0,0.0,98,0.00,,,0.00,Wunderground v.1.15,2013-08-03 13:10:00,
2013-08-03 09:15:00,75.2,74.6,30.01,South,184,0.0,0.0,98,0.00,,,0.00,Wunderground v.1.15,2013-08-03 13:15:00,
2013-08-03 09:20:00,75.5,74.6,30.01,South,184,0.0,0.0,97,0.00,,,0.00,Wunderground v.1.15,2013-08-03 13:20:00,
2013-08-03 09:25:00,75.7,74.8,30.01,South,184,0.0,0.0,97,0.00,,,0.00,Wunderground v.1.15,2013-08-03 13:25:00,
2013-08-03 09:30:00,76.0,74.8,30.01,South,184,0.0,0.0,96,0.00,,,0.00,Wunderground v.1.15,2013-08-03 13:30:00,
2013-08-03 09:35:00,76.2,74.7,30.01,South,184,0.0,0.0,95,0.00,,,0.00,Wunderground v.1.15,2013-08-03 13:35:00,
2013-08-03 09:40:00,76.4,74.9,30.01,South,184,0.0,0.0,95,0.00,,,0.00,Wunderground v.1.15,2013-08-03 13:40:00,
2013-08-03 09:45:00,76.7,74.8,30.01,South,184,0.0,0.0,94,0.00,,,0.00,Wunderground v.1.15,2013-08-03 13:45:00,
2013-08-03 09:50:00,77.2,75.3,30.01,South,171,0.0,0.0,94,0.00,,,0.00,Wunderground v.1.15,2013-08-03 13:50:00,
2013-08-03 09:55:00,77.7,75.5,30.01,South,172,0.0,0.0,93,0.00,,,0.00,Wunderground v.1.15,2013-08-03 13:55:00,
2013-08-03 10:00:00,78.2,75.7,30.01,South,172,0.0,0.0,92,0.00,,,0.00,Wunderground v.1.15,2013-08-03 14:00:00,
2013-08-03 10:05:00,78.8,75.9,30.01,ENE,71,0.0,0.0,91,0.00,,,0.00,Wunderground v.1.15,2013-08-03 14:05:00,
2013-08-03 10:10:00,79.4,75.9,30.01,ENE,61,0.0,0.0,89,0.00,,,0.00,Wunderground v.1.15,2013-08-03 14:10:00,
2013-08-03 10:15:00,80.0,76.1,30.01,SSE,147,0.0,0.0,88,0.00,,,0.00,Wunderground v.1.15,2013-08-03 14:15:00,
2013-08-03 10:25:00,80.9,76.3,30.00,SSW,210,0.0,0.0,86,0.00,,,0.00,Wunderground v.1.15,2013-08-03 14:25:00,
2013-08-03 10:31:00,81.6,76.6,30.00,SSW,213,0.0,0.0,85,0.00,,,0.00,Wunderground v.1.15,2013-08-03 14:31:00,
2013-08-03 10:40:00,82.3,76.6,29.99,SSE,165,0.0,0.0,83,0.00,,,0.00,Wunderground v.1.15,2013-08-03 14:40:00,
2013-08-03 10:45:00,82.5,76.4,29.99,SSE,167,0.0,0.0,82,0.00,,,0.00,Wunderground v.1.15,2013-08-03 14:45:00,
2013-08-03 10:50:00,82.6,76.9,30.00,SW,222,0.0,0.0,83,0.00,,,0.00,Wunderground v.1.15,2013-08-03 14:50:00,
2013-08-03 10:55:00,82.7,76.6,29.99,East,92,0.0,0.0,82,0.00,,,0.00,Wunderground v.1.15,2013-08-03 14:55:00,
2013-08-03 11:00:00,82.7,76.6,29.99,SSW,200,0.0,0.0,82,0.00,,,0.00,Wunderground v.1.15,2013-08-03 15:00:00,
2013-08-03 11:14:00,83.5,77.1,29.98,NE,40,0.0,0.0,81,0.00,,,0.00,Wunderground v.1.15,2013-08-03 15:14:00,
2013-08-03 11:25:00,83.5,77.1,29.98,NE,46,0.0,0.0,81,0.00,,,0.00,Wunderground v.1.15,2013-08-03 15:25:00,
2013-08-03 11:30:00,83.5,77.1,29.98,NE,46,0.0,0.0,81,0.00,,,0.00,Wunderground v.1.15,2013-08-03 15:30:00,
2013-08-03 11:35:00,83.6,77.1,29.98,NE,46,0.0,0.0,81,0.00,,,0.00,Wunderground v.1.15,2013-08-03 15:35:00,
2013-08-03 11:40:00,83.6,77.5,29.99,NE,46,0.0,0.0,82,0.00,,,0.00,Wunderground v.1.15,2013-08-03 15:40:00,
2013-08-03 11:45:00,83.6,77.5,29.99,NE,46,0.0,0.0,82,0.00,,,0.00,Wunderground v.1.15,2013-08-03 15:45:00,
2013-08-03 11:50:00,83.7,77.6,29.99,ENE,57,0.0,0.0,82,0.00,,,0.00,Wunderground v.1.15,2013-08-03 15:50:00,
2013-08-03 11:55:00,83.6,77.5,29.98,ENE,57,0.0,0.0,82,0.00,,,0.00,Wunderground v.1.15,2013-08-03 15:55:00,
2013-08-03 12:05:00,83.9,77.4,29.99,ESE,107,0.0,0.0,81,0.00,,,0.00,Wunderground v.1.15,2013-08-03 16:05:00,
2013-08-03 12:10:00,84.1,76.9,29.99,East,83,0.0,0.0,79,0.00,,,0.00,Wunderground v.1.15,2013-08-03 16:10:00,
2013-08-03 12:15:00,84.2,77.0,29.99,NNW,344,0.0,0.0,79,0.00,,,0.00,Wunderground v.1.15,2013-08-03 16:15:00,
2013-08-03 12:20:00,84.5,77.3,29.99,ESE,103,0.0,0.0,79,0.00,,,0.00,Wunderground v.1.15,2013-08-03 16:20:00,
2013-08-03 12:25:00,85.0,77.4,29.98,SSE,161,0.0,0.0,78,0.00,,,0.00,Wunderground v.1.15,2013-08-03 16:25:00,
2013-08-03 12:30:00,85.6,77.6,29.98,NW,326,0.0,0.0,77,0.00,,,0.00,Wunderground v.1.15,2013-08-03 16:30:00,
2013-08-03 12:45:00,86.3,77.8,29.98,South,173,0.0,0.0,76,0.00,,,0.00,Wunderground v.1.15,2013-08-03 16:45:00,
2013-08-03 12:55:00,86.4,78.3,29.97,SW,224,0.0,0.0,77,0.00,,,0.00,Wunderground v.1.15,2013-08-03 16:55:00,
2013-08-03 13:00:00,86.5,77.6,29.97,SW,224,0.0,0.0,75,0.00,,,0.00,Wunderground v.1.15,2013-08-03 17:00:00,
2013-08-03 13:05:00,87.0,78.1,29.97,SW,224,0.0,0.0,75,0.00,,,0.00,Wunderground v.1.15,2013-08-03 17:05:00,
2013-08-03 13:10:00,87.4,77.3,29.97,WSW,249,0.0,0.0,72,0.00,,,0.00,Wunderground v.1.15,2013-08-03 17:10:00,
2013-08-03 13:15:00,87.4,78.9,29.97,WSW,238,0.0,0.0,76,0.00,,,0.00,Wunderground v.1.15,2013-08-03 17:15:00,
2013-08-03 13:20:00,87.3,76.7,29.97,WSW,242,0.0,0.0,71,0.00,,,0.00,Wunderground v.1.15,2013-08-03 17:20:00,
2013-08-03 13:30:00,86.6,77.3,29.97,WSW,254,0.0,0.0,74,0.00,,,0.00,Wunderground v.1.15,2013-08-03 17:30:00,
2013-08-03 13:35:00,86.5,77.2,29.96,South,180,0.0,0.0,74,0.00,,,0.00,Wunderground v.1.15,2013-08-03 17:35:00,
2013-08-03 13:40:00,87.1,76.1,29.96,ESE,107,0.0,0.0,70,0.00,,,0.00,Wunderground v.1.15,2013-08-03 17:40:00,
2013-08-03 13:45:00,87.5,76.5,29.95,SSE,157,0.0,0.0,70,0.00,,,0.00,Wunderground v.1.15,2013-08-03 17:45:00,
2013-08-03 13:50:00,88.1,78.3,29.96,WNW,287,0.0,4.0,73,0.00,,,0.00,Wunderground v.1.15,2013-08-03 17:50:00,
2013-08-03 13:55:00,87.5,77.4,29.96,WSW,240,0.0,4.0,72,0.00,,,0.00,Wunderground v.1.15,2013-08-03 17:55:00,
2013-08-03 14:00:00,87.1,77.4,29.95,WSW,240,0.0,0.0,73,0.00,,,0.00,Wunderground v.1.15,2013-08-03 18:00:00,
2013-08-03 14:10:00,85.7,76.0,29.95,ESE,110,0.0,0.0,73,0.00,,,0.00,Wunderground v.1.15,2013-08-03 18:10:00,
2013-08-03 14:15:00,84.9,77.3,29.95,ESE,110,0.0,0.0,78,0.31,,,0.02,Wunderground v.1.15,2013-08-03 18:15:00,
2013-08-03 14:25:00,81.6,76.6,29.95,East,100,0.0,0.0,85,0.05,,,0.02,Wunderground v.1.15,2013-08-03 18:25:00,
2013-08-03 14:35:00,79.8,75.9,29.95,NNE,19,0.0,0.0,88,0.00,,,0.02,Wunderground v.1.15,2013-08-03 18:35:00,
2013-08-03 14:40:00,79.1,75.9,29.96,NNE,19,0.0,0.0,90,0.00,,,0.02,Wunderground v.1.15,2013-08-03 18:40:00,
2013-08-03 14:50:00,78.7,75.8,29.95,NNE,18,0.0,0.0,91,0.00,,,0.03,Wunderground v.1.15,2013-08-03 18:50:00,
2013-08-03 14:55:00,78.3,75.5,29.95,NNE,18,0.0,0.0,91,0.28,,,0.05,Wunderground v.1.15,2013-08-03 18:55:00,
2013-08-03 15:00:00,77.6,74.4,29.96,NNE,18,0.0,0.0,90,0.16,,,0.06,Wunderground v.1.15,2013-08-03 19:00:00,
2013-08-03 15:05:00,77.1,74.3,29.96,NNE,16,0.0,0.0,91,0.40,,,0.08,Wunderground v.1.15,2013-08-03 19:05:00,
2013-08-03 15:10:00,76.5,74.0,29.96,NW,325,0.0,0.0,92,0.24,,,0.12,Wunderground v.1.15,2013-08-03 19:10:00,
2013-08-03 15:15:00,76.2,74.0,29.96,NW,325,0.0,0.0,93,0.31,,,0.16,Wunderground v.1.15,2013-08-03 19:15:00,
2013-08-03 15:20:00,75.8,73.6,29.96,NW,321,0.0,0.0,93,0.88,,,0.19,Wunderground v.1.15,2013-08-03 19:20:00,
2013-08-03 15:30:00,75.4,73.6,29.96,SSW,203,0.0,0.0,94,0.21,,,0.29,Wunderground v.1.15,2013-08-03 19:30:00,
2013-08-03 15:35:00,75.1,73.3,29.96,WSW,246,0.0,0.0,94,2.25,,,0.43,Wunderground v.1.15,2013-08-03 19:35:00,
2013-08-03 15:40:00,74.2,71.7,29.95,North,5,1.0,4.0,92,0.73,,,0.56,Wunderground v.1.15,2013-08-03 19:40:00,
2013-08-03 15:45:00,73.3,70.8,29.94,NNW,336,1.0,4.0,92,0.25,,,0.57,Wunderground v.1.15,2013-08-03 19:45:00,
2013-08-03 15:50:00,72.7,70.6,29.94,North,5,0.0,0.0,93,0.08,,,0.57,Wunderground v.1.15,2013-08-03 19:50:00,
2013-08-03 16:00:00,72.5,70.7,29.94,North,5,0.0,0.0,94,0.60,,,0.60,Wunderground v.1.15,2013-08-03 20:00:00,
2013-08-03 16:05:00,72.5,71.0,29.94,North,5,0.0,0.0,95,0.23,,,0.61,Wunderground v.1.15,2013-08-03 20:05:00,
2013-08-03 16:10:00,72.6,71.1,29.94,North,5,0.0,0.0,95,0.14,,,0.63,Wunderground v.1.15,2013-08-03 20:10:00,
2013-08-03 16:15:00,72.6,71.1,29.94,North,5,0.0,0.0,95,1.35,,,0.68,Wunderground v.1.15,2013-08-03 20:15:00,
2013-08-03 16:20:00,72.6,71.1,29.94,North,5,0.0,0.0,95,0.17,,,0.70,Wunderground v.1.15,2013-08-03 20:20:00,
2013-08-03 16:25:00,72.7,71.5,29.94,NNW,344,0.0,0.0,96,0.23,,,0.72,Wunderground v.1.15,2013-08-03 20:25:00,
2013-08-03 16:30:00,72.7,71.5,29.94,NNW,344,0.0,0.0,96,0.07,,,0.72,Wunderground v.1.15,2013-08-03 20:30:00,
2013-08-03 16:35:00,72.8,71.6,29.94,NNW,344,0.0,0.0,96,0.05,,,0.73,Wunderground v.1.15,2013-08-03 20:35:00,
2013-08-03 16:40:00,72.8,71.6,29.94,NNW,344,0.0,0.0,96,0.64,,,0.77,Wunderground v.1.15,2013-08-03 20:40:00,
2013-08-03 16:45:00,73.0,71.8,29.93,NNW,344,0.0,0.0,96,0.71,,,0.82,Wunderground v.1.15,2013-08-03 20:45:00,
2013-08-03 16:51:00,73.4,72.2,29.93,NNW,344,0.0,0.0,96,0.10,,,0.82,Wunderground v.1.15,2013-08-03 20:51:00,
2013-08-03 16:55:00,73.8,72.9,29.93,NNW,344,0.0,0.0,97,0.06,,,0.82,Wunderground v.1.15,2013-08-03 20:55:00,
2013-08-03 17:00:00,74.3,73.4,29.92,NNW,344,0.0,0.0,97,0.04,,,0.82,Wunderground v.1.15,2013-08-03 21:00:00,
2013-08-03 17:05:00,74.5,73.6,29.93,NNW,344,0.0,0.0,97,0.00,,,0.82,Wunderground v.1.15,2013-08-03 21:05:00,
2013-08-03 17:10:00,74.7,73.8,29.93,NNW,344,0.0,0.0,97,0.00,,,0.82,Wunderground v.1.15,2013-08-03 21:10:00,
2013-08-03 17:20:00,74.8,73.9,29.93,NNW,344,0.0,0.0,97,0.00,,,0.82,Wunderground v.1.15,2013-08-03 21:20:00,
2013-08-03 17:25:00,74.9,74.0,29.93,NNW,344,0.0,0.0,97,0.00,,,0.82,Wunderground v.1.15,2013-08-03 21:25:00,
2013-08-03 17:30:00,75.1,74.2,29.93,NNW,344,0.0,0.0,97,0.00,,,0.83,Wunderground v.1.15,2013-08-03 21:30:00,
2013-08-03 17:35:00,75.3,74.4,29.93,NNW,344,0.0,0.0,97,0.00,,,0.83,Wunderground v.1.15,2013-08-03 21:35:00,
2013-08-03 17:40:00,75.4,74.5,29.94,NNW,344,0.0,0.0,97,0.05,,,0.84,Wunderground v.1.15,2013-08-03 21:40:00,
2013-08-03 17:44:00,75.5,74.6,29.94,NNW,344,0.0,0.0,97,0.69,,,0.87,Wunderground v.1.15,2013-08-03 21:44:00,
2013-08-03 17:50:00,75.2,74.3,29.94,NNW,346,0.0,0.0,97,0.43,,,0.94,Wunderground v.1.15,2013-08-03 21:50:00,
2013-08-03 17:55:00,75.0,74.1,29.94,NNW,346,0.0,0.0,97,0.17,,,0.95,Wunderground v.1.15,2013-08-03 21:55:00,
2013-08-03 18:05:00,74.7,73.5,29.94,NNW,346,0.0,0.0,96,1.46,,,1.09,Wunderground v.1.15,2013-08-03 22:05:00,
2013-08-03 18:10:00,74.6,73.4,29.93,NNW,348,0.0,0.0,96,1.62,,,1.20,Wunderground v.1.15,2013-08-03 22:10:00,
2013-08-03 18:15:00,74.4,73.2,29.92,NNW,348,0.0,0.0,96,0.14,,,1.23,Wunderground v.1.15,2013-08-03 22:15:00,
2013-08-03 18:20:00,74.3,73.1,29.93,NNW,348,0.0,0.0,96,0.06,,,1.23,Wunderground v.1.15,2013-08-03 22:20:00,
2013-08-03 18:25:00,74.3,73.1,29.93,NNW,348,0.0,0.0,96,0.04,,,1.23,Wunderground v.1.15,2013-08-03 22:25:00,
2013-08-03 18:30:00,74.3,73.1,29.93,East,93,0.0,0.0,96,0.00,,,1.23,Wunderground v.1.15,2013-08-03 22:30:00,
2013-08-03 18:35:00,74.3,73.1,29.93,East,90,0.0,0.0,96,0.00,,,1.23,Wunderground v.1.15,2013-08-03 22:35:00,
2013-08-03 18:40:00,74.5,73.6,29.92,East,90,0.0,0.0,97,0.00,,,1.23,Wunderground v.1.15,2013-08-03 22:40:00,
2013-08-03 18:45:00,74.6,73.7,29.92,East,90,0.0,0.0,97,0.00,,,1.23,Wunderground v.1.15,2013-08-03 22:45:00,
2013-08-03 18:50:00,74.6,73.7,29.92,East,90,0.0,0.0,97,0.00,,,1.23,Wunderground v.1.15,2013-08-03 22:50:00,
2013-08-03 18:55:00,74.4,73.2,29.92,East,90,0.0,0.0,96,0.00,,,1.23,Wunderground v.1.15,2013-08-03 22:55:00,
2013-08-03 19:25:00,74.9,74.0,29.92,SE,130,0.0,0.0,97,0.00,,,1.23,Wunderground v.1.15,2013-08-03 23:25:00,
2013-08-03 19:30:00,74.8,73.9,29.92,SE,130,0.0,0.0,97,0.00,,,1.23,Wunderground v.1.15,2013-08-03 23:30:00,
2013-08-03 19:35:00,74.7,73.8,29.92,SE,130,0.0,0.0,97,0.00,,,1.23,Wunderground v.1.15,2013-08-03 23:35:00,
2013-08-03 19:40:00,74.7,73.8,29.93,SE,130,0.0,0.0,97,0.00,,,1.23,Wunderground v.1.15,2013-08-03 23:40:00,
2013-08-03 19:45:00,74.7,73.8,29.92,SE,130,0.0,0.0,97,0.00,,,1.23,Wunderground v.1.15,2013-08-03 23:45:00,
2013-08-03 19:50:00,74.6,73.4,29.93,SE,130,0.0,0.0,96,0.00,,,1.23,Wunderground v.1.15,2013-08-03 23:50:00,
2013-08-03 19:55:00,74.6,73.7,29.93,SE,130,0.0,0.0,97,0.00,,,1.23,Wunderground v.1.15,2013-08-03 23:55:00,
2013-08-03 20:00:00,74.5,73.3,29.93,SE,130,0.0,0.0,96,0.00,,,1.23,Wunderground v.1.15,2013-08-04 00:00:00,
2013-08-03 20:05:00,74.4,73.2,29.93,SE,130,0.0,0.0,96,0.00,,,1.23,Wunderground v.1.15,2013-08-04 00:05:00,
2013-08-03 20:10:00,74.2,73.0,29.93,SE,130,0.0,0.0,96,0.00,,,1.23,Wunderground v.1.15,2013-08-04 00:10:00,
2013-08-03 20:15:00,74.1,72.9,29.93,SE,130,0.0,0.0,96,0.00,,,1.23,Wunderground v.1.15,2013-08-04 00:15:00,
2013-08-03 20:40:00,73.1,71.9,29.93,SE,130,0.0,0.0,96,0.00,,,1.23,Wunderground v.1.15,2013-08-04 00:40:00,
2013-08-03 20:45:00,72.9,71.7,29.93,SE,130,0.0,0.0,96,0.00,,,1.23,Wunderground v.1.15,2013-08-04 00:45:00,
2013-08-03 20:50:00,72.8,71.6,29.93,SE,130,0.0,0.0,96,0.00,,,1.23,Wunderground v.1.15,2013-08-04 00:50:00,
2013-08-03 20:55:00,72.6,71.4,29.93,SE,130,0.0,0.0,96,0.00,,,1.23,Wunderground v.1.15,2013-08-04 00:55:00,
2013-08-03 21:00:00,72.5,71.3,29.94,SE,130,0.0,0.0,96,0.00,,,1.23,Wunderground v.1.15,2013-08-04 01:00:00,
2013-08-03 21:05:00,72.4,71.2,29.93,SE,130,0.0,0.0,96,0.00,,,1.23,Wunderground v.1.15,2013-08-04 01:05:00,
2013-08-03 21:10:00,72.4,71.2,29.93,SE,130,0.0,0.0,96,0.00,,,1.23,Wunderground v.1.15,2013-08-04 01:10:00,
2013-08-03 21:15:00,72.3,71.1,29.94,SE,130,0.0,0.0,96,0.00,,,1.23,Wunderground v.1.15,2013-08-04 01:15:00,
2013-08-03 21:20:00,72.3,71.1,29.94,SE,130,0.0,0.0,96,0.00,,,1.23,Wunderground v.1.15,2013-08-04 01:20:00,
2013-08-03 21:25:00,72.2,71.0,29.94,SE,130,0.0,0.0,96,0.00,,,1.23,Wunderground v.1.15,2013-08-04 01:25:00,
2013-08-03 21:30:00,72.1,70.9,29.94,SE,130,0.0,0.0,96,0.00,,,1.23,Wunderground v.1.15,2013-08-04 01:30:00,
2013-08-03 21:35:00,72.1,70.9,29.95,SE,130,0.0,0.0,96,0.00,,,1.23,Wunderground v.1.15,2013-08-04 01:35:00,
2013-08-03 21:40:00,72.0,70.8,29.95,SE,130,0.0,0.0,96,0.00,,,1.23,Wunderground v.1.15,2013-08-04 01:40:00,
2013-08-03 21:50:00,71.8,70.9,29.95,SE,130,0.0,0.0,97,0.00,,,1.23,Wunderground v.1.15,2013-08-04 01:50:00,
2013-08-03 21:55:00,71.7,70.8,29.95,SE,130,0.0,0.0,97,0.00,,,1.23,Wunderground v.1.15,2013-08-04 01:55:00,
2013-08-03 22:20:00,71.3,70.4,29.95,SE,130,0.0,0.0,97,0.00,,,1.23,Wunderground v.1.15,2013-08-04 02:20:00,
2013-08-03 22:30:00,71.1,70.2,29.95,SE,130,0.0,0.0,97,0.00,,,1.23,Wunderground v.1.15,2013-08-04 02:30:00,
2013-08-03 22:35:00,71.1,70.2,29.95,SE,130,0.0,0.0,97,0.00,,,1.23,Wunderground v.1.15,2013-08-04 02:35:00,
2013-08-03 22:40:00,71.0,70.1,29.95,SE,130,0.0,0.0,97,0.00,,,1.23,Wunderground v.1.15,2013-08-04 02:40:00,
2013-08-03 22:45:00,70.9,70.0,29.96,SE,130,0.0,0.0,97,0.00,,,1.23,Wunderground v.1.15,2013-08-04 02:45:00,
2013-08-03 22:50:00,70.8,69.9,29.95,SE,130,0.0,0.0,97,0.00,,,1.23,Wunderground v.1.15,2013-08-04 02:50:00,
2013-08-03 22:55:00,70.8,69.9,29.95,SE,130,0.0,0.0,97,0.00,,,1.23,Wunderground v.1.15,2013-08-04 02:55:00,
2013-08-03 23:00:00,70.7,69.8,29.95,SE,130,0.0,0.0,97,0.00,,,1.23,Wunderground v.1.15,2013-08-04 03:00:00,
2013-08-03 23:05:00,70.6,69.7,29.95,SE,130,0.0,0.0,97,0.00,,,1.23,Wunderground v.1.15,2013-08-04 03:05:00,
2013-08-03 23:10:00,70.5,69.6,29.95,SE,130,0.0,0.0,97,0.00,,,1.23,Wunderground v.1.15,2013-08-04 03:10:00,
2013-08-03 23:15:00,70.5,69.6,29.95,SE,130,0.0,0.0,97,0.00,,,1.23,Wunderground v.1.15,2013-08-04 03:15:00,
2013-08-03 23:20:00,70.4,69.5,29.95,SE,130,0.0,0.0,97,0.00,,,1.23,Wunderground v.1.15,2013-08-04 03:20:00,
2013-08-03 23:30:00,70.3,69.4,29.95,SE,130,0.0,0.0,97,0.00,,,1.23,Wunderground v.1.15,2013-08-04 03:30:00,
2013-08-03 23:50:00,70.0,69.1,29.95,SE,130,0.0,0.0,97,0.00,,,1.23,Wunderground v.1.15,2013-08-04 03:50:00,
2013-08-03 23:55:00,70.0,69.1,29.95,SE,130,0.0,0.0,97,0.00,,,1.23,Wunderground v.1.15,2013-08-04 03:55:00,